sensor_id;sensor_type;location;lat;lon;timestamp;pressure;altitude;pressure_sealevel;temperature;humidity
57234;BME280;43090;52.604;13.318;2023-02-13T00:01:23;103186.97;;;6.80;100.00
57234;BME280;43090;52.604;13.318;2023-02-13T00:03:52;103188.13;;;6.63;100.00
57234;BME280;43090;52.604;13.318;2023-02-13T00:06:31;103190.84;;;6.60;100.00
57234;BME280;43090;52.604;13.318;2023-02-13T00:08:58;103184.38;;;6.75;100.00
57234;BME280;43090;52.604;13.318;2023-02-13T00:11:25;103181.00;;;6.64;100.00
57234;BME280;43090;52.604;13.318;2023-02-13T00:13:56;103185.13;;;6.83;100.00
57234;BME280;43090;52.604;13.318;2023-02-13T00:16:26;103191.44;;;6.78;100.00
57234;BME280;43090;52.604;13.318;2023-02-13T00:18:56;103187.28;;;6.60;100.00
57234;BME280;43090;52.604;13.318;2023-02-13T00:21:26;103190.69;;;6.70;100.00
57234;BME280;43090;52.604;13.318;2023-02-13T00:23:53;103193.50;;;6.59;100.00
57234;BME280;43090;52.604;13.318;2023-02-13T00:26:25;103196.25;;;6.54;100.00
57234;BME280;43090;52.604;13.318;2023-02-13T00:28:57;103181.41;;;6.36;100.00
57234;BME280;43090;52.604;13.318;2023-02-13T00:34:42;103181.94;;;6.61;100.00
57234;BME280;43090;52.604;13.318;2023-02-13T00:37:18;103185.25;;;6.76;100.00
57234;BME280;43090;52.604;13.318;2023-02-13T00:39:58;103183.66;;;6.64;100.00
57234;BME280;43090;52.604;13.318;2023-02-13T00:42:28;103193.25;;;6.76;100.00
57234;BME280;43090;52.604;13.318;2023-02-13T00:45:04;103177.50;;;6.62;100.00
57234;BME280;43090;52.604;13.318;2023-02-13T00:47:31;103179.25;;;6.64;100.00
57234;BME280;43090;52.604;13.318;2023-02-13T00:50:00;103171.28;;;6.61;100.00
57234;BME280;43090;52.604;13.318;2023-02-13T00:52:35;103183.06;;;6.45;100.00
57234;BME280;43090;52.604;13.318;2023-02-13T00:55:02;103177.00;;;6.33;100.00
57234;BME280;43090;52.604;13.318;2023-02-13T00:57:30;103180.28;;;6.54;100.00
57234;BME280;43090;52.604;13.318;2023-02-13T01:00:02;103181.97;;;6.60;100.00
57234;BME280;43090;52.604;13.318;2023-02-13T01:02:33;103183.94;;;6.47;100.00
57234;BME280;43090;52.604;13.318;2023-02-13T01:05:06;103188.19;;;6.59;100.00
57234;BME280;43090;52.604;13.318;2023-02-13T01:07:35;103180.22;;;6.57;100.00
57234;BME280;43090;52.604;13.318;2023-02-13T01:10:01;103179.53;;;6.46;100.00
57234;BME280;43090;52.604;13.318;2023-02-13T01:12:33;103179.34;;;6.57;100.00
57234;BME280;43090;52.604;13.318;2023-02-13T01:15:00;103186.50;;;6.53;100.00
57234;BME280;43090;52.604;13.318;2023-02-13T01:17:30;103186.47;;;6.55;100.00
57234;BME280;43090;52.604;13.318;2023-02-13T01:19:57;103190.97;;;6.49;100.00
57234;BME280;43090;52.604;13.318;2023-02-13T01:22:25;103190.28;;;6.38;100.00
57234;BME280;43090;52.604;13.318;2023-02-13T01:24:52;103190.16;;;6.46;100.00
57234;BME280;43090;52.604;13.318;2023-02-13T01:27:19;103177.00;;;6.37;100.00
57234;BME280;43090;52.604;13.318;2023-02-13T01:29:47;103175.88;;;6.52;100.00
57234;BME280;43090;52.604;13.318;2023-02-13T01:32:16;103190.31;;;6.35;100.00
57234;BME280;43090;52.604;13.318;2023-02-13T01:34:43;103178.78;;;6.34;100.00
57234;BME280;43090;52.604;13.318;2023-02-13T01:37:09;103185.91;;;6.32;100.00
57234;BME280;43090;52.604;13.318;2023-02-13T01:39:39;103181.59;;;6.24;100.00
57234;BME280;43090;52.604;13.318;2023-02-13T01:42:12;103172.56;;;6.36;100.00
57234;BME280;43090;52.604;13.318;2023-02-13T01:44:44;103176.97;;;6.38;100.00
57234;BME280;43090;52.604;13.318;2023-02-13T01:50:07;103178.28;;;6.06;100.00
57234;BME280;43090;52.604;13.318;2023-02-13T01:52:39;103171.13;;;6.11;100.00
57234;BME280;43090;52.604;13.318;2023-02-13T01:55:06;103176.44;;;6.13;100.00
57234;BME280;43090;52.604;13.318;2023-02-13T01:57:39;103181.56;;;6.25;100.00
57234;BME280;43090;52.604;13.318;2023-02-13T02:00:11;103175.41;;;6.22;100.00
57234;BME280;43090;52.604;13.318;2023-02-13T02:02:42;103173.63;;;6.22;100.00
57234;BME280;43090;52.604;13.318;2023-02-13T02:05:10;103163.97;;;6.15;100.00
57234;BME280;43090;52.604;13.318;2023-02-13T02:07:43;103175.31;;;6.29;100.00
57234;BME280;43090;52.604;13.318;2023-02-13T02:10:13;103176.31;;;6.22;100.00
57234;BME280;43090;52.604;13.318;2023-02-13T02:12:42;103170.22;;;6.11;100.00
57234;BME280;43090;52.604;13.318;2023-02-13T02:15:11;103187.75;;;6.27;100.00
57234;BME280;43090;52.604;13.318;2023-02-13T02:17:38;103183.31;;;6.28;100.00
57234;BME280;43090;52.604;13.318;2023-02-13T02:20:10;103179.03;;;6.16;100.00
57234;BME280;43090;52.604;13.318;2023-02-13T02:41:37;103183.41;;;6.20;100.00
57234;BME280;43090;52.604;13.318;2023-02-13T02:44:11;103185.25;;;6.15;100.00
57234;BME280;43090;52.604;13.318;2023-02-13T02:46:48;103187.84;;;6.21;100.00
57234;BME280;43090;52.604;13.318;2023-02-13T02:49:40;103186.06;;;6.20;100.00
57234;BME280;43090;52.604;13.318;2023-02-13T02:52:27;103180.84;;;6.12;100.00
57234;BME280;43090;52.604;13.318;2023-02-13T02:55:03;103181.78;;;6.08;100.00
57234;BME280;43090;52.604;13.318;2023-02-13T02:57:41;103187.78;;;6.24;100.00
57234;BME280;43090;52.604;13.318;2023-02-13T03:00:28;103174.75;;;6.04;100.00
57234;BME280;43090;52.604;13.318;2023-02-13T03:03:19;103173.66;;;6.19;100.00
57234;BME280;43090;52.604;13.318;2023-02-13T03:06:14;103188.63;;;6.28;100.00
57234;BME280;43090;52.604;13.318;2023-02-13T03:08:43;103185.19;;;6.21;100.00
57234;BME280;43090;52.604;13.318;2023-02-13T03:11:29;103187.88;;;6.18;100.00
57234;BME280;43090;52.604;13.318;2023-02-13T03:14:18;103186.00;;;6.26;100.00
57234;BME280;43090;52.604;13.318;2023-02-13T03:16:46;103184.09;;;6.34;100.00
57234;BME280;43090;52.604;13.318;2023-02-13T03:22:41;103187.75;;;6.29;100.00
57234;BME280;43090;52.604;13.318;2023-02-13T03:25:14;103186.84;;;6.30;100.00
57234;BME280;43090;52.604;13.318;2023-02-13T03:39:00;103185.47;;;5.95;100.00
57234;BME280;43090;52.604;13.318;2023-02-13T03:41:37;103182.00;;;5.88;100.00
57234;BME280;43090;52.604;13.318;2023-02-13T03:44:10;103183.72;;;5.94;100.00
57234;BME280;43090;52.604;13.318;2023-02-13T03:50:03;103175.88;;;5.83;100.00
57234;BME280;43090;52.604;13.318;2023-02-13T03:55:18;103170.72;;;5.71;100.00
57234;BME280;43090;52.604;13.318;2023-02-13T03:58:06;103167.88;;;5.84;100.00
57234;BME280;43090;52.604;13.318;2023-02-13T04:01:15;103169.50;;;5.96;100.00
57234;BME280;43090;52.604;13.318;2023-02-13T04:06:12;103165.00;;;6.06;100.00
57234;BME280;43090;52.604;13.318;2023-02-13T04:08:40;103165.84;;;6.08;100.00
57234;BME280;43090;52.604;13.318;2023-02-13T04:11:14;103164.16;;;6.03;100.00
57234;BME280;43090;52.604;13.318;2023-02-13T04:16:15;103155.47;;;5.85;100.00
57234;BME280;43090;52.604;13.318;2023-02-13T04:18:43;103166.81;;;6.03;100.00
57234;BME280;43090;52.604;13.318;2023-02-13T04:21:10;103149.16;;;5.95;100.00
57234;BME280;43090;52.604;13.318;2023-02-13T04:23:44;103157.81;;;6.10;100.00
57234;BME280;43090;52.604;13.318;2023-02-13T04:26:22;103159.66;;;6.06;100.00
57234;BME280;43090;52.604;13.318;2023-02-13T04:28:52;103165.03;;;6.02;100.00
57234;BME280;43090;52.604;13.318;2023-02-13T04:31:19;103165.09;;;5.95;100.00
57234;BME280;43090;52.604;13.318;2023-02-13T04:33:46;103166.19;;;5.77;100.00
57234;BME280;43090;52.604;13.318;2023-02-13T04:36:13;103158.09;;;5.87;100.00
57234;BME280;43090;52.604;13.318;2023-02-13T04:38:39;103159.88;;;5.84;100.00
57234;BME280;43090;52.604;13.318;2023-02-13T04:41:10;103162.34;;;6.03;100.00
57234;BME280;43090;52.604;13.318;2023-02-13T04:50:53;103150.66;;;6.18;100.00
57234;BME280;43090;52.604;13.318;2023-02-13T04:54:03;103156.13;;;6.07;100.00
57234;BME280;43090;52.604;13.318;2023-02-13T04:57:13;103149.91;;;6.07;100.00
57234;BME280;43090;52.604;13.318;2023-02-13T05:03:56;103146.47;;;5.98;100.00
57234;BME280;43090;52.604;13.318;2023-02-13T05:06:48;103144.69;;;5.96;100.00
57234;BME280;43090;52.604;13.318;2023-02-13T05:33:39;103148.22;;;5.96;100.00
57234;BME280;43090;52.604;13.318;2023-02-13T05:36:53;103154.69;;;5.77;100.00
57234;BME280;43090;52.604;13.318;2023-02-13T05:39:43;103154.53;;;5.89;100.00
57234;BME280;43090;52.604;13.318;2023-02-13T05:42:52;103145.63;;;5.93;100.00
57234;BME280;43090;52.604;13.318;2023-02-13T05:45:22;103157.97;;;5.99;100.00
57234;BME280;43090;52.604;13.318;2023-02-13T05:47:49;103159.66;;;6.06;100.00
57234;BME280;43090;52.604;13.318;2023-02-13T05:50:39;103157.09;;;5.97;100.00
57234;BME280;43090;52.604;13.318;2023-02-13T05:56:49;103167.63;;;6.08;100.00
57234;BME280;43090;52.604;13.318;2023-02-13T06:06:35;103175.56;;;6.09;100.00
57234;BME280;43090;52.604;13.318;2023-02-13T06:13:15;103184.84;;;5.76;100.00
57234;BME280;43090;52.604;13.318;2023-02-13T06:16:10;103195.22;;;5.96;100.00
57234;BME280;43090;52.604;13.318;2023-02-13T06:18:40;103186.38;;;5.98;100.00
57234;BME280;43090;52.604;13.318;2023-02-13T06:24:45;103187.22;;;5.99;100.00
57234;BME280;43090;52.604;13.318;2023-02-13T06:27:19;103181.94;;;5.96;100.00
57234;BME280;43090;52.604;13.318;2023-02-13T06:32:52;103189.00;;;6.00;100.00
57234;BME280;43090;52.604;13.318;2023-02-13T06:35:21;103187.25;;;5.96;100.00
57234;BME280;43090;52.604;13.318;2023-02-13T06:37:49;103182.00;;;5.88;100.00
57234;BME280;43090;52.604;13.318;2023-02-13T06:40:34;103196.09;;;5.96;100.00
57234;BME280;43090;52.604;13.318;2023-02-13T06:43:08;103192.53;;;5.97;100.00
57234;BME280;43090;52.604;13.318;2023-02-13T06:48:43;103201.50;;;5.89;100.00
57234;BME280;43090;52.604;13.318;2023-02-13T06:54:23;103202.25;;;6.02;100.00
57234;BME280;43090;52.604;13.318;2023-02-13T06:57:15;103205.75;;;6.07;100.00
57234;BME280;43090;52.604;13.318;2023-02-13T06:59:53;103212.97;;;5.95;100.00
57234;BME280;43090;52.604;13.318;2023-02-13T07:02:59;103215.63;;;5.94;100.00
57234;BME280;43090;52.604;13.318;2023-02-13T07:19:31;103224.56;;;5.88;100.00
57234;BME280;43090;52.604;13.318;2023-02-13T07:22:29;103223.59;;;5.94;100.00
57234;BME280;43090;52.604;13.318;2023-02-13T08:28:37;103237.50;;;6.21;100.00
57234;BME280;43090;52.604;13.318;2023-02-13T08:31:08;103240.81;;;6.40;100.00
57234;BME280;43090;52.604;13.318;2023-02-13T08:33:43;103234.53;;;6.44;100.00
57234;BME280;43090;52.604;13.318;2023-02-13T08:36:15;103235.56;;;6.33;100.00
57234;BME280;43090;52.604;13.318;2023-02-13T08:38:41;103235.78;;;6.18;100.00
57234;BME280;43090;52.604;13.318;2023-02-13T08:41:08;103230.31;;;6.29;100.00
57234;BME280;43090;52.604;13.318;2023-02-13T08:43:35;103235.31;;;6.52;100.00
57234;BME280;43090;52.604;13.318;2023-02-13T08:46:02;103237.25;;;6.41;100.00
57234;BME280;43090;52.604;13.318;2023-02-13T08:48:29;103229.09;;;6.52;100.00
57234;BME280;43090;52.604;13.318;2023-02-13T08:50:59;103238.91;;;6.48;100.00
57234;BME280;43090;52.604;13.318;2023-02-13T08:53:38;103239.00;;;6.42;100.00
57234;BME280;43090;52.604;13.318;2023-02-13T08:56:23;103238.75;;;6.59;100.00
57234;BME280;43090;52.604;13.318;2023-02-13T09:02:19;103240.53;;;6.58;100.00
57234;BME280;43090;52.604;13.318;2023-02-13T09:04:55;103232.72;;;6.47;100.00
57234;BME280;43090;52.604;13.318;2023-02-13T09:07:22;103238.22;;;6.35;100.00
57234;BME280;43090;52.604;13.318;2023-02-13T09:13:07;103247.78;;;6.50;100.00
57234;BME280;43090;52.604;13.318;2023-02-13T09:18:30;103247.81;;;6.47;100.00
57234;BME280;43090;52.604;13.318;2023-02-13T09:21:02;103251.28;;;6.54;100.00
57234;BME280;43090;52.604;13.318;2023-02-13T09:23:37;103244.28;;;6.45;100.00
57234;BME280;43090;52.604;13.318;2023-02-13T09:26:08;103246.75;;;6.57;100.00
57234;BME280;43090;52.604;13.318;2023-02-13T09:32:11;103252.03;;;6.62;100.00
57234;BME280;43090;52.604;13.318;2023-02-13T09:37:48;103262.72;;;6.59;100.00
57234;BME280;43090;52.604;13.318;2023-02-13T09:43:06;103264.31;;;6.04;100.00
57234;BME280;43090;52.604;13.318;2023-02-13T09:45:39;103268.50;;;6.22;100.00
57234;BME280;43090;52.604;13.318;2023-02-13T09:48:14;103266.44;;;6.48;100.00
57234;BME280;43090;52.604;13.318;2023-02-13T09:57:43;103253.84;;;6.58;100.00
57234;BME280;43090;52.604;13.318;2023-02-13T10:00:16;103250.31;;;6.58;100.00
57234;BME280;43090;52.604;13.318;2023-02-13T10:08:56;103258.47;;;6.44;100.00
57234;BME280;43090;52.604;13.318;2023-02-13T10:11:36;103254.75;;;6.57;100.00
57234;BME280;43090;52.604;13.318;2023-02-13T10:17:09;103256.47;;;6.63;100.00
57234;BME280;43090;52.604;13.318;2023-02-13T10:19:53;103246.59;;;6.71;100.00
57234;BME280;43090;52.604;13.318;2023-02-13T10:22:29;103256.28;;;6.75;100.00
57234;BME280;43090;52.604;13.318;2023-02-13T10:28:10;103249.44;;;6.57;100.00
57234;BME280;43090;52.604;13.318;2023-02-13T10:30:41;103247.63;;;6.61;100.00
57234;BME280;43090;52.604;13.318;2023-02-13T10:33:22;103247.78;;;6.50;100.00
57234;BME280;43090;52.604;13.318;2023-02-13T10:38:21;103252.78;;;6.72;100.00
57234;BME280;43090;52.604;13.318;2023-02-13T10:43:32;103251.00;;;6.71;100.00
57234;BME280;43090;52.604;13.318;2023-02-13T10:51:34;103248.72;;;7.07;100.00
57234;BME280;43090;52.604;13.318;2023-02-13T10:54:12;103239.00;;;7.01;100.00
57234;BME280;43090;52.604;13.318;2023-02-13T11:02:30;103225.25;;;6.73;100.00
57234;BME280;43090;52.604;13.318;2023-02-13T11:05:20;103233.50;;;6.54;100.00
57234;BME280;43090;52.604;13.318;2023-02-13T11:07:47;103221.31;;;6.39;100.00
57234;BME280;43090;52.604;13.318;2023-02-13T11:10:17;103227.06;;;6.69;100.00
57234;BME280;43090;52.604;13.318;2023-02-13T11:12:44;103223.88;;;6.47;100.00
57234;BME280;43090;52.604;13.318;2023-02-13T11:15:21;103224.31;;;6.77;100.00
57234;BME280;43090;52.604;13.318;2023-02-13T11:18:21;103229.41;;;6.92;100.00
57234;BME280;43090;52.604;13.318;2023-02-13T11:20:56;103223.91;;;7.02;100.00
57234;BME280;43090;52.604;13.318;2023-02-13T11:29:15;103213.50;;;6.86;100.00
57234;BME280;43090;52.604;13.318;2023-02-13T11:31:48;103211.56;;;6.97;100.00
57234;BME280;43090;52.604;13.318;2023-02-13T11:34:27;103209.13;;;6.82;100.00
57234;BME280;43090;52.604;13.318;2023-02-13T11:37:13;103207.47;;;6.76;100.00
57234;BME280;43090;52.604;13.318;2023-02-13T11:39:41;103214.25;;;6.94;100.00
57234;BME280;43090;52.604;13.318;2023-02-13T11:42:15;103208.50;;;7.21;100.00
57234;BME280;43090;52.604;13.318;2023-02-13T11:44:43;103204.22;;;7.12;100.00
57234;BME280;43090;52.604;13.318;2023-02-13T11:47:09;103209.13;;;6.82;100.00
57234;BME280;43090;52.604;13.318;2023-02-13T11:49:36;103208.31;;;7.31;100.00
57234;BME280;43090;52.604;13.318;2023-02-13T11:52:24;103202.22;;;7.23;100.00
57234;BME280;43090;52.604;13.318;2023-02-13T11:54:58;103203.25;;;7.16;100.00
57234;BME280;43090;52.604;13.318;2023-02-13T11:57:32;103193.19;;;7.33;100.00
57234;BME280;43090;52.604;13.318;2023-02-13T12:00:00;103197.63;;;7.31;100.00
57234;BME280;43090;52.604;13.318;2023-02-13T12:02:28;103191.97;;;7.50;100.00
57234;BME280;43090;52.604;13.318;2023-02-13T12:07:40;103187.94;;;7.27;100.00
57234;BME280;43090;52.604;13.318;2023-02-13T12:10:10;103189.47;;;7.42;100.00
57234;BME280;43090;52.604;13.318;2023-02-13T12:15:26;103193.41;;;7.21;100.00
57234;BME280;43090;52.604;13.318;2023-02-13T12:18:01;103198.44;;;7.37;100.00
57234;BME280;43090;52.604;13.318;2023-02-13T12:20:33;103198.47;;;7.35;100.00
57234;BME280;43090;52.604;13.318;2023-02-13T12:23:11;103200.91;;;7.47;100.00
57234;BME280;43090;52.604;13.318;2023-02-13T12:28:41;103201.28;;;7.27;100.00
57234;BME280;43090;52.604;13.318;2023-02-13T12:34:07;103199.28;;;7.40;100.00
57234;BME280;43090;52.604;13.318;2023-02-13T12:42:22;103201.72;;;7.01;100.00
57234;BME280;43090;52.604;13.318;2023-02-13T12:49:20;103208.41;;;7.27;100.00
57234;BME280;43090;52.604;13.318;2023-02-13T12:57:13;103202.00;;;6.84;100.00
57234;BME280;43090;52.604;13.318;2023-02-13T12:59:58;103190.72;;;6.66;100.00
57234;BME280;43090;52.604;13.318;2023-02-13T13:23:30;103189.66;;;6.78;100.00
57234;BME280;43090;52.604;13.318;2023-02-13T13:29:43;103189.00;;;6.64;100.00
57234;BME280;43090;52.604;13.318;2023-02-13T14:07:22;103174.72;;;6.68;97.58
57234;BME280;43090;52.604;13.318;2023-02-13T14:19:53;103161.53;;;6.62;94.55
57234;BME280;43090;52.604;13.318;2023-02-13T15:42:26;103099.72;;;6.41;95.64
57234;BME280;43090;52.604;13.318;2023-02-13T15:48:02;103098.63;;;6.55;95.31
57234;BME280;43090;52.604;13.318;2023-02-13T15:53:16;103105.16;;;6.37;96.07
57234;BME280;43090;52.604;13.318;2023-02-13T15:55:54;103091.56;;;6.52;95.86
57234;BME280;43090;52.604;13.318;2023-02-13T15:58:21;103089.09;;;6.41;96.52
57234;BME280;43090;52.604;13.318;2023-02-13T16:00:51;103099.59;;;6.50;96.31
57234;BME280;43090;52.604;13.318;2023-02-13T16:03:17;103100.78;;;6.32;96.20
57234;BME280;43090;52.604;13.318;2023-02-13T16:05:45;103104.22;;;6.39;96.44
57234;BME280;43090;52.604;13.318;2023-02-13T16:16:27;103107.31;;;6.67;95.14
57234;BME280;43090;52.604;13.318;2023-02-13T16:19:03;103105.56;;;6.65;95.17
57234;BME280;43090;52.604;13.318;2023-02-13T16:21:35;103110.16;;;6.57;95.51
57234;BME280;43090;52.604;13.318;2023-02-13T16:24:03;103110.06;;;6.61;96.20
57234;BME280;43090;52.604;13.318;2023-02-13T16:26:33;103123.03;;;6.25;97.80
57234;BME280;43090;52.604;13.318;2023-02-13T16:29:12;103119.94;;;6.53;96.19
57234;BME280;43090;52.604;13.318;2023-02-13T16:56:14;103116.81;;;6.26;99.32
57234;BME280;43090;52.604;13.318;2023-02-13T17:02:06;103119.53;;;6.23;99.10
57234;BME280;43090;52.604;13.318;2023-02-13T17:23:35;103129.50;;;6.09;97.44
57234;BME280;43090;52.604;13.318;2023-02-13T17:26:06;103132.84;;;6.23;97.95
